首页
METAR-TAF:

METAR-TAF

机场 :

直布罗陀, 直布罗陀

直布羅陀機場

纬度: 36-09N, 经度: 005-21W, 海拔: 5米

当前天气观测

该预报发布于37分钟前的13:50 UTC
风速14节,风向南转西南
温度 18°C
湿度 77%
气压 1026 hPa
能见度10公里或以上
少量云层高于2000英尺

METAR: LXGB 221350Z 20014KT 9999 FEW020 18/14 Q1026 NOSIG

时间: 15:27 (14:27 UTC)

预报

该预报发布于51分钟前的13:36 UTC
预报有效从22日的 13点(UTC)到 22日的 21点(UTC)
风速12节,风向西南
能见度10公里或以上
少量云层高于2000英尺
短暂存在
从 22日的 13点(UTC)到 22日的 16点(UTC)
风速14节,风向南转西南

TAF: LXGB 221336Z 2213/2221 23012KT 9999 FEW020 TEMPO 2213/2216 20014KT 520002

超过4000个机场的气象观测和天气预报(METAR&TAF报告)。

可查询的气象台以黄色和红色小点在地图上表示。

将鼠标移到小点上方,可查看气象台名称。

然后点击查看天气观测和预报。

如需切换地图:点击带黑十字的绿色按钮放大地图;点击带横线的绿色按钮缩小地图;或者点击绿色箭头查看邻近地区的地图。


METAR-TAF: